sensor_id;sensor_type;location;lat;lon;timestamp;temperature;humidity
4564;DHT22;2294;51.818;8.484;2023-05-07T00:01:34;18.20;99.90
4564;DHT22;2294;51.818;8.484;2023-05-07T00:04:02;18.20;99.90
4564;DHT22;2294;51.818;8.484;2023-05-07T00:06:29;18.20;99.90
4564;DHT22;2294;51.818;8.484;2023-05-07T00:08:57;18.20;99.90
4564;DHT22;2294;51.818;8.484;2023-05-07T00:11:24;18.10;99.90
4564;DHT22;2294;51.818;8.484;2023-05-07T00:13:52;18.10;99.90
4564;DHT22;2294;51.818;8.484;2023-05-07T00:16:19;18.00;99.90
4564;DHT22;2294;51.818;8.484;2023-05-07T00:18:46;17.90;99.90
4564;DHT22;2294;51.818;8.484;2023-05-07T00:21:14;17.90;99.90
4564;DHT22;2294;51.818;8.484;2023-05-07T00:23:41;18.00;99.90
4564;DHT22;2294;51.818;8.484;2023-05-07T00:26:08;17.90;99.90
4564;DHT22;2294;51.818;8.484;2023-05-07T00:28:35;17.90;99.90
4564;DHT22;2294;51.818;8.484;2023-05-07T00:31:01;17.90;99.90
4564;DHT22;2294;51.818;8.484;2023-05-07T00:33:28;17.90;99.90
4564;DHT22;2294;51.818;8.484;2023-05-07T00:35:55;17.80;99.90
4564;DHT22;2294;51.818;8.484;2023-05-07T00:38:23;17.70;99.90
4564;DHT22;2294;51.818;8.484;2023-05-07T00:40:50;17.70;99.90
4564;DHT22;2294;51.818;8.484;2023-05-07T00:43:17;17.60;99.90
4564;DHT22;2294;51.818;8.484;2023-05-07T00:45:44;17.70;99.90
4564;DHT22;2294;51.818;8.484;2023-05-07T00:48:11;17.60;99.90
4564;DHT22;2294;51.818;8.484;2023-05-07T00:50:38;17.70;99.90
4564;DHT22;2294;51.818;8.484;2023-05-07T00:53:05;17.80;99.90
4564;DHT22;2294;51.818;8.484;2023-05-07T00:55:35;17.80;99.90
4564;DHT22;2294;51.818;8.484;2023-05-07T00:58:02;17.80;99.90
4564;DHT22;2294;51.818;8.484;2023-05-07T01:00:29;17.80;99.90
4564;DHT22;2294;51.818;8.484;2023-05-07T01:02:56;17.80;99.90
4564;DHT22;2294;51.818;8.484;2023-05-07T01:05:24;17.80;99.90
4564;DHT22;2294;51.818;8.484;2023-05-07T01:07:53;17.80;99.90
4564;DHT22;2294;51.818;8.484;2023-05-07T01:10:21;17.80;99.90
4564;DHT22;2294;51.818;8.484;2023-05-07T01:12:50;17.60;99.90
4564;DHT22;2294;51.818;8.484;2023-05-07T01:15:18;17.70;99.90
4564;DHT22;2294;51.818;8.484;2023-05-07T01:17:45;17.80;99.90
4564;DHT22;2294;51.818;8.484;2023-05-07T01:20:12;17.80;99.90
4564;DHT22;2294;51.818;8.484;2023-05-07T01:22:40;17.70;99.90
4564;DHT22;2294;51.818;8.484;2023-05-07T01:25:08;17.80;99.90
4564;DHT22;2294;51.818;8.484;2023-05-07T01:27:35;17.70;99.90
4564;DHT22;2294;51.818;8.484;2023-05-07T01:30:03;17.70;99.90
4564;DHT22;2294;51.818;8.484;2023-05-07T01:32:36;17.70;99.90
4564;DHT22;2294;51.818;8.484;2023-05-07T01:35:07;17.60;99.90
4564;DHT22;2294;51.818;8.484;2023-05-07T01:37:34;17.60;99.90
4564;DHT22;2294;51.818;8.484;2023-05-07T01:40:03;17.70;99.90
4564;DHT22;2294;51.818;8.484;2023-05-07T01:42:31;17.60;99.90
4564;DHT22;2294;51.818;8.484;2023-05-07T01:44:58;17.60;99.90
4564;DHT22;2294;51.818;8.484;2023-05-07T01:47:25;17.50;99.90
4564;DHT22;2294;51.818;8.484;2023-05-07T01:49:53;17.50;99.90
4564;DHT22;2294;51.818;8.484;2023-05-07T01:52:20;17.50;99.90
4564;DHT22;2294;51.818;8.484;2023-05-07T01:54:47;17.60;99.90
4564;DHT22;2294;51.818;8.484;2023-05-07T01:57:15;17.60;99.90
4564;DHT22;2294;51.818;8.484;2023-05-07T01:59:42;17.50;99.90
4564;DHT22;2294;51.818;8.484;2023-05-07T02:02:09;17.50;99.90
4564;DHT22;2294;51.818;8.484;2023-05-07T02:04:36;17.50;99.90
4564;DHT22;2294;51.818;8.484;2023-05-07T02:07:03;17.30;99.90
4564;DHT22;2294;51.818;8.484;2023-05-07T02:09:30;17.30;99.90
4564;DHT22;2294;51.818;8.484;2023-05-07T02:11:56;17.30;99.90
4564;DHT22;2294;51.818;8.484;2023-05-07T02:14:25;17.30;99.90
4564;DHT22;2294;51.818;8.484;2023-05-07T02:16:52;17.10;99.90
4564;DHT22;2294;51.818;8.484;2023-05-07T02:19:18;17.10;99.90
4564;DHT22;2294;51.818;8.484;2023-05-07T02:21:46;17.00;99.90
4564;DHT22;2294;51.818;8.484;2023-05-07T02:24:13;17.10;99.90
4564;DHT22;2294;51.818;8.484;2023-05-07T02:26:41;17.10;99.90
4564;DHT22;2294;51.818;8.484;2023-05-07T02:29:07;17.10;99.90
4564;DHT22;2294;51.818;8.484;2023-05-07T02:31:36;17.10;99.90
4564;DHT22;2294;51.818;8.484;2023-05-07T02:34:03;17.10;99.90
4564;DHT22;2294;51.818;8.484;2023-05-07T02:36:29;17.10;99.90
4564;DHT22;2294;51.818;8.484;2023-05-07T02:38:56;17.20;99.90
4564;DHT22;2294;51.818;8.484;2023-05-07T02:41:23;17.20;99.90
4564;DHT22;2294;51.818;8.484;2023-05-07T02:43:50;17.10;99.90
4564;DHT22;2294;51.818;8.484;2023-05-07T02:46:17;17.10;99.90
4564;DHT22;2294;51.818;8.484;2023-05-07T02:48:45;17.10;99.90
4564;DHT22;2294;51.818;8.484;2023-05-07T02:51:12;17.00;99.90
4564;DHT22;2294;51.818;8.484;2023-05-07T02:53:39;17.10;99.90
4564;DHT22;2294;51.818;8.484;2023-05-07T02:56:06;17.10;99.90
4564;DHT22;2294;51.818;8.484;2023-05-07T02:58:33;17.20;99.90
4564;DHT22;2294;51.818;8.484;2023-05-07T03:01:00;17.20;99.90
4564;DHT22;2294;51.818;8.484;2023-05-07T03:03:27;17.20;99.90
4564;DHT22;2294;51.818;8.484;2023-05-07T03:05:55;17.10;99.90
4564;DHT22;2294;51.818;8.484;2023-05-07T03:08:22;17.00;99.90
4564;DHT22;2294;51.818;8.484;2023-05-07T03:10:49;17.10;99.90
4564;DHT22;2294;51.818;8.484;2023-05-07T03:13:17;17.10;99.90
4564;DHT22;2294;51.818;8.484;2023-05-07T03:15:44;17.00;99.90
4564;DHT22;2294;51.818;8.484;2023-05-07T03:18:10;17.10;99.90
4564;DHT22;2294;51.818;8.484;2023-05-07T03:20:37;16.90;99.90
4564;DHT22;2294;51.818;8.484;2023-05-07T03:23:06;16.90;99.90
4564;DHT22;2294;51.818;8.484;2023-05-07T03:25:32;16.90;99.90
4564;DHT22;2294;51.818;8.484;2023-05-07T03:27:59;16.90;99.90
4564;DHT22;2294;51.818;8.484;2023-05-07T03:30:26;16.70;99.90
4564;DHT22;2294;51.818;8.484;2023-05-07T03:32:53;16.70;99.90
4564;DHT22;2294;51.818;8.484;2023-05-07T03:35:20;16.70;99.90
4564;DHT22;2294;51.818;8.484;2023-05-07T03:37:46;16.70;99.90
4564;DHT22;2294;51.818;8.484;2023-05-07T03:40:15;16.60;99.90
4564;DHT22;2294;51.818;8.484;2023-05-07T03:42:42;16.50;99.90
4564;DHT22;2294;51.818;8.484;2023-05-07T03:45:09;16.40;99.90
4564;DHT22;2294;51.818;8.484;2023-05-07T03:47:36;16.30;99.90
4564;DHT22;2294;51.818;8.484;2023-05-07T03:50:03;16.20;99.90
4564;DHT22;2294;51.818;8.484;2023-05-07T03:52:30;16.30;99.90
4564;DHT22;2294;51.818;8.484;2023-05-07T03:54:57;16.20;99.90
4564;DHT22;2294;51.818;8.484;2023-05-07T03:57:25;16.20;99.90
4564;DHT22;2294;51.818;8.484;2023-05-07T03:59:52;16.20;99.90
4564;DHT22;2294;51.818;8.484;2023-05-07T04:02:19;16.20;99.90
4564;DHT22;2294;51.818;8.484;2023-05-07T04:04:47;16.30;99.90
4564;DHT22;2294;51.818;8.484;2023-05-07T04:07:14;16.30;99.90
4564;DHT22;2294;51.818;8.484;2023-05-07T04:09:41;16.20;99.90
4564;DHT22;2294;51.818;8.484;2023-05-07T04:12:08;16.10;99.90
4564;DHT22;2294;51.818;8.484;2023-05-07T04:14:36;16.20;99.90
4564;DHT22;2294;51.818;8.484;2023-05-07T04:17:03;16.20;99.90
4564;DHT22;2294;51.818;8.484;2023-05-07T04:19:33;16.20;99.90
4564;DHT22;2294;51.818;8.484;2023-05-07T04:22:00;16.20;99.90
4564;DHT22;2294;51.818;8.484;2023-05-07T04:24:27;16.20;99.90
4564;DHT22;2294;51.818;8.484;2023-05-07T04:26:54;16.20;99.90
4564;DHT22;2294;51.818;8.484;2023-05-07T04:29:20;16.10;99.90
4564;DHT22;2294;51.818;8.484;2023-05-07T04:31:49;16.00;99.90
4564;DHT22;2294;51.818;8.484;2023-05-07T04:34:15;16.00;99.90
4564;DHT22;2294;51.818;8.484;2023-05-07T04:36:42;16.00;99.90
4564;DHT22;2294;51.818;8.484;2023-05-07T04:39:09;16.10;99.90
4564;DHT22;2294;51.818;8.484;2023-05-07T04:41:37;16.20;99.90
4564;DHT22;2294;51.818;8.484;2023-05-07T04:44:03;16.10;99.90
4564;DHT22;2294;51.818;8.484;2023-05-07T04:46:31;16.10;99.90
4564;DHT22;2294;51.818;8.484;2023-05-07T04:48:59;16.00;99.90
4564;DHT22;2294;51.818;8.484;2023-05-07T04:51:26;16.20;99.90
4564;DHT22;2294;51.818;8.484;2023-05-07T04:53:53;16.10;99.90
4564;DHT22;2294;51.818;8.484;2023-05-07T04:56:20;16.10;99.90
4564;DHT22;2294;51.818;8.484;2023-05-07T04:58:47;16.20;99.90
4564;DHT22;2294;51.818;8.484;2023-05-07T05:01:14;16.20;99.90
4564;DHT22;2294;51.818;8.484;2023-05-07T05:03:40;16.20;99.90
4564;DHT22;2294;51.818;8.484;2023-05-07T05:06:09;16.20;99.90
4564;DHT22;2294;51.818;8.484;2023-05-07T05:08:36;16.20;99.90
4564;DHT22;2294;51.818;8.484;2023-05-07T05:11:03;16.20;99.90
4564;DHT22;2294;51.818;8.484;2023-05-07T05:13:30;16.20;99.90
4564;DHT22;2294;51.818;8.484;2023-05-07T05:15:57;16.30;99.90
4564;DHT22;2294;51.818;8.484;2023-05-07T05:18:24;16.40;99.90
4564;DHT22;2294;51.818;8.484;2023-05-07T05:20:51;16.30;99.90
4564;DHT22;2294;51.818;8.484;2023-05-07T05:23:19;16.30;99.90
4564;DHT22;2294;51.818;8.484;2023-05-07T05:25:46;16.10;99.90
4564;DHT22;2294;51.818;8.484;2023-05-07T05:28:13;16.20;99.90
4564;DHT22;2294;51.818;8.484;2023-05-07T05:30:40;16.10;99.90
4564;DHT22;2294;51.818;8.484;2023-05-07T05:33:07;16.30;99.90
4564;DHT22;2294;51.818;8.484;2023-05-07T05:35:34;16.00;99.90
4564;DHT22;2294;51.818;8.484;2023-05-07T05:38:01;16.00;99.90
4564;DHT22;2294;51.818;8.484;2023-05-07T05:40:29;16.00;99.90
4564;DHT22;2294;51.818;8.484;2023-05-07T05:42:57;15.90;99.90
4564;DHT22;2294;51.818;8.484;2023-05-07T05:45:24;15.90;99.90
4564;DHT22;2294;51.818;8.484;2023-05-07T05:47:51;15.80;99.90
4564;DHT22;2294;51.818;8.484;2023-05-07T05:50:18;15.80;99.90
4564;DHT22;2294;51.818;8.484;2023-05-07T05:52:45;15.80;99.90
4564;DHT22;2294;51.818;8.484;2023-05-07T05:55:12;15.70;99.90
4564;DHT22;2294;51.818;8.484;2023-05-07T05:57:40;15.80;99.90
4564;DHT22;2294;51.818;8.484;2023-05-07T06:00:08;16.00;99.90
4564;DHT22;2294;51.818;8.484;2023-05-07T06:02:35;16.10;99.90
4564;DHT22;2294;51.818;8.484;2023-05-07T06:05:02;16.30;99.90
4564;DHT22;2294;51.818;8.484;2023-05-07T06:07:29;16.10;99.90
4564;DHT22;2294;51.818;8.484;2023-05-07T06:09:56;15.90;99.90
4564;DHT22;2294;51.818;8.484;2023-05-07T06:12:23;16.00;99.90
4564;DHT22;2294;51.818;8.484;2023-05-07T06:14:51;16.00;99.90
4564;DHT22;2294;51.818;8.484;2023-05-07T06:17:18;15.70;99.90
4564;DHT22;2294;51.818;8.484;2023-05-07T06:19:45;15.80;99.90
4564;DHT22;2294;51.818;8.484;2023-05-07T06:22:12;15.80;99.90
4564;DHT22;2294;51.818;8.484;2023-05-07T06:24:39;15.70;99.90
4564;DHT22;2294;51.818;8.484;2023-05-07T06:27:05;15.60;99.90
4564;DHT22;2294;51.818;8.484;2023-05-07T06:29:32;15.60;99.90
4564;DHT22;2294;51.818;8.484;2023-05-07T06:32:08;15.70;99.90
4564;DHT22;2294;51.818;8.484;2023-05-07T06:34:35;15.80;99.90
4564;DHT22;2294;51.818;8.484;2023-05-07T06:37:02;15.70;99.90
4564;DHT22;2294;51.818;8.484;2023-05-07T06:39:29;15.70;99.90
4564;DHT22;2294;51.818;8.484;2023-05-07T06:41:56;15.80;99.90
4564;DHT22;2294;51.818;8.484;2023-05-07T06:44:23;15.80;99.90
4564;DHT22;2294;51.818;8.484;2023-05-07T06:46:50;15.90;99.90
4564;DHT22;2294;51.818;8.484;2023-05-07T06:49:19;15.80;99.90
4564;DHT22;2294;51.818;8.484;2023-05-07T06:51:46;15.40;99.90
4564;DHT22;2294;51.818;8.484;2023-05-07T06:54:13;15.40;99.90
4564;DHT22;2294;51.818;8.484;2023-05-07T06:56:40;15.50;99.90
4564;DHT22;2294;51.818;8.484;2023-05-07T06:59:07;15.40;99.90
4564;DHT22;2294;51.818;8.484;2023-05-07T07:01:34;15.50;99.90
4564;DHT22;2294;51.818;8.484;2023-05-07T07:04:01;15.90;99.90
4564;DHT22;2294;51.818;8.484;2023-05-07T07:06:29;15.70;99.90
4564;DHT22;2294;51.818;8.484;2023-05-07T07:08:57;15.90;99.90
4564;DHT22;2294;51.818;8.484;2023-05-07T07:11:24;15.90;99.90
4564;DHT22;2294;51.818;8.484;2023-05-07T07:13:51;16.00;99.90
4564;DHT22;2294;51.818;8.484;2023-05-07T07:16:19;16.00;99.90
4564;DHT22;2294;51.818;8.484;2023-05-07T07:18:46;16.20;99.90
4564;DHT22;2294;51.818;8.484;2023-05-07T07:21:13;16.00;99.90
4564;DHT22;2294;51.818;8.484;2023-05-07T07:23:41;16.10;99.90
4564;DHT22;2294;51.818;8.484;2023-05-07T07:26:08;16.00;99.90
4564;DHT22;2294;51.818;8.484;2023-05-07T07:28:37;15.80;99.90
4564;DHT22;2294;51.818;8.484;2023-05-07T07:31:08;16.00;99.90
4564;DHT22;2294;51.818;8.484;2023-05-07T07:33:35;16.00;99.90
4564;DHT22;2294;51.818;8.484;2023-05-07T07:36:02;16.30;99.90
4564;DHT22;2294;51.818;8.484;2023-05-07T07:38:28;16.10;99.90
4564;DHT22;2294;51.818;8.484;2023-05-07T07:40:57;16.20;99.90
4564;DHT22;2294;51.818;8.484;2023-05-07T07:43:24;16.20;99.90
4564;DHT22;2294;51.818;8.484;2023-05-07T07:45:51;16.10;99.90
4564;DHT22;2294;51.818;8.484;2023-05-07T07:48:18;16.20;99.90
4564;DHT22;2294;51.818;8.484;2023-05-07T07:50:44;15.80;99.90
4564;DHT22;2294;51.818;8.484;2023-05-07T07:53:11;15.80;99.90
4564;DHT22;2294;51.818;8.484;2023-05-07T07:55:38;15.70;99.90
4564;DHT22;2294;51.818;8.484;2023-05-07T07:58:07;15.80;99.90
4564;DHT22;2294;51.818;8.484;2023-05-07T08:00:34;16.40;99.90
4564;DHT22;2294;51.818;8.484;2023-05-07T08:03:01;16.30;99.90
4564;DHT22;2294;51.818;8.484;2023-05-07T08:05:29;16.10;99.90
4564;DHT22;2294;51.818;8.484;2023-05-07T08:07:56;16.40;99.90
4564;DHT22;2294;51.818;8.484;2023-05-07T08:10:24;16.70;99.90
4564;DHT22;2294;51.818;8.484;2023-05-07T08:12:51;16.70;99.90
4564;DHT22;2294;51.818;8.484;2023-05-07T08:15:19;17.00;99.90
4564;DHT22;2294;51.818;8.484;2023-05-07T08:17:46;16.80;99.90
4564;DHT22;2294;51.818;8.484;2023-05-07T08:20:13;16.80;99.90
4564;DHT22;2294;51.818;8.484;2023-05-07T08:22:40;16.80;99.90
4564;DHT22;2294;51.818;8.484;2023-05-07T08:25:07;17.10;99.90
4564;DHT22;2294;51.818;8.484;2023-05-07T08:27:34;16.80;99.90
4564;DHT22;2294;51.818;8.484;2023-05-07T08:30:01;16.00;99.90
4564;DHT22;2294;51.818;8.484;2023-05-07T08:32:29;17.00;99.90
4564;DHT22;2294;51.818;8.484;2023-05-07T08:34:56;17.00;99.90
4564;DHT22;2294;51.818;8.484;2023-05-07T08:37:23;16.90;99.90
4564;DHT22;2294;51.818;8.484;2023-05-07T08:39:50;17.00;99.90
4564;DHT22;2294;51.818;8.484;2023-05-07T08:42:17;17.10;99.90
4564;DHT22;2294;51.818;8.484;2023-05-07T08:44:46;17.30;99.90
4564;DHT22;2294;51.818;8.484;2023-05-07T08:47:13;17.50;99.90
4564;DHT22;2294;51.818;8.484;2023-05-07T08:49:42;17.60;99.90
4564;DHT22;2294;51.818;8.484;2023-05-07T08:52:09;17.80;99.90
4564;DHT22;2294;51.818;8.484;2023-05-07T08:54:37;17.30;99.90
4564;DHT22;2294;51.818;8.484;2023-05-07T08:57:04;17.40;99.90
4564;DHT22;2294;51.818;8.484;2023-05-07T08:59:31;17.30;99.90
4564;DHT22;2294;51.818;8.484;2023-05-07T09:01:57;17.30;99.90
4564;DHT22;2294;51.818;8.484;2023-05-07T09:04:24;17.50;99.90
4564;DHT22;2294;51.818;8.484;2023-05-07T09:06:52;17.40;99.90
4564;DHT22;2294;51.818;8.484;2023-05-07T09:09:21;17.20;99.90
4564;DHT22;2294;51.818;8.484;2023-05-07T09:11:48;17.50;99.90
4564;DHT22;2294;51.818;8.484;2023-05-07T09:14:16;17.30;99.90
4564;DHT22;2294;51.818;8.484;2023-05-07T09:16:43;17.50;99.90
4564;DHT22;2294;51.818;8.484;2023-05-07T09:19:10;17.50;99.90
4564;DHT22;2294;51.818;8.484;2023-05-07T09:21:36;18.10;99.90
4564;DHT22;2294;51.818;8.484;2023-05-07T09:24:05;18.20;99.90
4564;DHT22;2294;51.818;8.484;2023-05-07T09:26:32;17.90;99.90
4564;DHT22;2294;51.818;8.484;2023-05-07T09:29:00;18.00;99.90
4564;DHT22;2294;51.818;8.484;2023-05-07T09:31:27;18.00;99.90
4564;DHT22;2294;51.818;8.484;2023-05-07T09:33:54;17.90;99.90
4564;DHT22;2294;51.818;8.484;2023-05-07T09:36:21;18.10;99.90
4564;DHT22;2294;51.818;8.484;2023-05-07T09:38:48;18.10;99.90
4564;DHT22;2294;51.818;8.484;2023-05-07T09:41:18;17.90;99.90
4564;DHT22;2294;51.818;8.484;2023-05-07T09:43:46;17.80;99.90
4564;DHT22;2294;51.818;8.484;2023-05-07T09:46:24;17.70;99.90
4564;DHT22;2294;51.818;8.484;2023-05-07T09:48:53;17.80;99.90
4564;DHT22;2294;51.818;8.484;2023-05-07T09:51:25;18.00;99.90
4564;DHT22;2294;51.818;8.484;2023-05-07T09:53:56;17.90;99.90
4564;DHT22;2294;51.818;8.484;2023-05-07T09:56:26;17.90;99.90
4564;DHT22;2294;51.818;8.484;2023-05-07T09:58:54;18.10;99.90
4564;DHT22;2294;51.818;8.484;2023-05-07T10:01:23;18.20;99.90
4564;DHT22;2294;51.818;8.484;2023-05-07T10:03:52;18.40;99.90
4564;DHT22;2294;51.818;8.484;2023-05-07T10:06:20;18.60;99.90
4564;DHT22;2294;51.818;8.484;2023-05-07T10:08:48;18.60;99.90
4564;DHT22;2294;51.818;8.484;2023-05-07T10:11:16;18.70;99.90
4564;DHT22;2294;51.818;8.484;2023-05-07T10:13:46;18.80;99.90
4564;DHT22;2294;51.818;8.484;2023-05-07T10:16:14;18.90;99.90
4564;DHT22;2294;51.818;8.484;2023-05-07T10:18:41;19.30;99.90
4564;DHT22;2294;51.818;8.484;2023-05-07T10:21:15;19.50;99.90
4564;DHT22;2294;51.818;8.484;2023-05-07T10:23:45;19.00;99.90
4564;DHT22;2294;51.818;8.484;2023-05-07T10:26:13;19.10;99.90
4564;DHT22;2294;51.818;8.484;2023-05-07T10:28:46;19.20;99.90
4564;DHT22;2294;51.818;8.484;2023-05-07T10:31:30;19.20;99.90
4564;DHT22;2294;51.818;8.484;2023-05-07T10:34:00;19.30;99.90
4564;DHT22;2294;51.818;8.484;2023-05-07T10:36:29;19.00;99.90
4564;DHT22;2294;51.818;8.484;2023-05-07T10:38:56;18.60;99.90
4564;DHT22;2294;51.818;8.484;2023-05-07T10:41:23;18.80;99.90
4564;DHT22;2294;51.818;8.484;2023-05-07T10:43:51;18.90;99.90
4564;DHT22;2294;51.818;8.484;2023-05-07T10:46:19;18.80;99.90
4564;DHT22;2294;51.818;8.484;2023-05-07T10:49:08;19.50;99.90
4564;DHT22;2294;51.818;8.484;2023-05-07T10:51:37;19.80;99.90
4564;DHT22;2294;51.818;8.484;2023-05-07T10:54:23;19.60;99.90
4564;DHT22;2294;51.818;8.484;2023-05-07T10:56:50;19.50;99.90
4564;DHT22;2294;51.818;8.484;2023-05-07T10:59:38;19.20;99.90
4564;DHT22;2294;51.818;8.484;2023-05-07T11:02:09;19.00;99.90
4564;DHT22;2294;51.818;8.484;2023-05-07T11:04:37;19.00;99.90
4564;DHT22;2294;51.818;8.484;2023-05-07T11:10:06;19.40;99.90
4564;DHT22;2294;51.818;8.484;2023-05-07T11:12:54;19.70;99.90
4564;DHT22;2294;51.818;8.484;2023-05-07T11:15:40;19.80;99.90
4564;DHT22;2294;51.818;8.484;2023-05-07T11:18:09;19.90;99.90
4564;DHT22;2294;51.818;8.484;2023-05-07T11:20:54;19.80;99.90
4564;DHT22;2294;51.818;8.484;2023-05-07T11:26:47;19.10;99.90
4564;DHT22;2294;51.818;8.484;2023-05-07T11:29:15;19.50;99.90
4564;DHT22;2294;51.818;8.484;2023-05-07T11:31:44;19.90;99.90
4564;DHT22;2294;51.818;8.484;2023-05-07T11:34:15;19.80;99.90
4564;DHT22;2294;51.818;8.484;2023-05-07T11:36:47;19.90;99.90
4564;DHT22;2294;51.818;8.484;2023-05-07T11:39:28;20.10;99.90
4564;DHT22;2294;51.818;8.484;2023-05-07T11:41:55;20.40;99.90
4564;DHT22;2294;51.818;8.484;2023-05-07T11:44:22;20.30;99.90
4564;DHT22;2294;51.818;8.484;2023-05-07T11:46:50;20.60;99.90
4564;DHT22;2294;51.818;8.484;2023-05-07T11:49:18;20.80;99.90
4564;DHT22;2294;51.818;8.484;2023-05-07T11:51:45;20.50;99.90
4564;DHT22;2294;51.818;8.484;2023-05-07T11:54:15;20.50;99.90
4564;DHT22;2294;51.818;8.484;2023-05-07T11:56:44;20.50;99.90
4564;DHT22;2294;51.818;8.484;2023-05-07T11:59:18;20.80;99.90
4564;DHT22;2294;51.818;8.484;2023-05-07T12:01:46;20.40;99.90
4564;DHT22;2294;51.818;8.484;2023-05-07T12:04:19;20.30;99.90
4564;DHT22;2294;51.818;8.484;2023-05-07T12:06:46;20.80;99.90
4564;DHT22;2294;51.818;8.484;2023-05-07T12:09:13;21.10;99.90
4564;DHT22;2294;51.818;8.484;2023-05-07T12:11:40;21.50;99.90
4564;DHT22;2294;51.818;8.484;2023-05-07T12:14:12;21.60;99.90
4564;DHT22;2294;51.818;8.484;2023-05-07T12:16:40;21.80;99.90
4564;DHT22;2294;51.818;8.484;2023-05-07T12:19:07;21.30;99.90
4564;DHT22;2294;51.818;8.484;2023-05-07T12:21:39;21.80;99.90
4564;DHT22;2294;51.818;8.484;2023-05-07T12:24:07;22.20;99.90
4564;DHT22;2294;51.818;8.484;2023-05-07T12:26:38;22.10;99.90
4564;DHT22;2294;51.818;8.484;2023-05-07T12:29:06;21.90;99.90
4564;DHT22;2294;51.818;8.484;2023-05-07T12:31:33;21.90;99.90
4564;DHT22;2294;51.818;8.484;2023-05-07T12:34:00;21.80;99.90
4564;DHT22;2294;51.818;8.484;2023-05-07T12:36:36;22.00;99.90
4564;DHT22;2294;51.818;8.484;2023-05-07T12:39:05;22.10;99.90
4564;DHT22;2294;51.818;8.484;2023-05-07T12:41:51;22.40;99.90
4564;DHT22;2294;51.818;8.484;2023-05-07T12:44:18;22.60;99.90
4564;DHT22;2294;51.818;8.484;2023-05-07T12:46:46;22.40;99.90
4564;DHT22;2294;51.818;8.484;2023-05-07T12:49:13;22.00;99.90
4564;DHT22;2294;51.818;8.484;2023-05-07T12:51:40;22.00;99.90
4564;DHT22;2294;51.818;8.484;2023-05-07T12:54:08;22.70;99.90
4564;DHT22;2294;51.818;8.484;2023-05-07T12:56:36;23.20;99.90
4564;DHT22;2294;51.818;8.484;2023-05-07T12:59:03;22.40;99.90
4564;DHT22;2294;51.818;8.484;2023-05-07T13:01:30;22.70;99.90
4564;DHT22;2294;51.818;8.484;2023-05-07T13:04:00;22.70;99.90
4564;DHT22;2294;51.818;8.484;2023-05-07T13:06:27;22.70;99.90
4564;DHT22;2294;51.818;8.484;2023-05-07T13:08:54;23.00;99.90
4564;DHT22;2294;51.818;8.484;2023-05-07T13:11:22;22.90;99.90
4564;DHT22;2294;51.818;8.484;2023-05-07T13:13:49;23.30;99.90
4564;DHT22;2294;51.818;8.484;2023-05-07T13:16:16;23.30;99.90
4564;DHT22;2294;51.818;8.484;2023-05-07T13:18:43;23.10;99.90
4564;DHT22;2294;51.818;8.484;2023-05-07T13:21:11;23.30;99.90
4564;DHT22;2294;51.818;8.484;2023-05-07T13:23:39;22.60;99.90
4564;DHT22;2294;51.818;8.484;2023-05-07T13:26:05;23.00;99.90
4564;DHT22;2294;51.818;8.484;2023-05-07T13:28:34;23.60;99.90
4564;DHT22;2294;51.818;8.484;2023-05-07T13:31:01;24.00;99.90
4564;DHT22;2294;51.818;8.484;2023-05-07T13:33:28;24.00;99.90
4564;DHT22;2294;51.818;8.484;2023-05-07T13:35:55;24.20;99.90
4564;DHT22;2294;51.818;8.484;2023-05-07T13:38:23;24.00;99.90
4564;DHT22;2294;51.818;8.484;2023-05-07T13:40:50;23.70;99.90
4564;DHT22;2294;51.818;8.484;2023-05-07T13:43:17;23.70;99.90
4564;DHT22;2294;51.818;8.484;2023-05-07T13:45:45;23.80;99.90
4564;DHT22;2294;51.818;8.484;2023-05-07T13:48:12;24.00;99.90
4564;DHT22;2294;51.818;8.484;2023-05-07T13:50:39;24.10;99.90
4564;DHT22;2294;51.818;8.484;2023-05-07T13:53:07;24.60;99.90
4564;DHT22;2294;51.818;8.484;2023-05-07T13:55:34;24.80;99.90
4564;DHT22;2294;51.818;8.484;2023-05-07T13:58:02;24.40;99.90
4564;DHT22;2294;51.818;8.484;2023-05-07T14:00:29;24.90;99.90
4564;DHT22;2294;51.818;8.484;2023-05-07T14:02:58;25.00;1.00
4564;DHT22;2294;51.818;8.484;2023-05-07T14:05:25;25.10;1.00
4564;DHT22;2294;51.818;8.484;2023-05-07T14:07:53;25.30;1.00
4564;DHT22;2294;51.818;8.484;2023-05-07T14:10:20;24.30;99.90
4564;DHT22;2294;51.818;8.484;2023-05-07T14:12:47;24.40;1.00
4564;DHT22;2294;51.818;8.484;2023-05-07T14:15:15;25.00;1.00
4564;DHT22;2294;51.818;8.484;2023-05-07T14:17:42;26.00;99.90
4564;DHT22;2294;51.818;8.484;2023-05-07T14:20:11;25.50;1.00
4564;DHT22;2294;51.818;8.484;2023-05-07T14:22:38;25.80;99.90
4564;DHT22;2294;51.818;8.484;2023-05-07T14:25:06;26.50;99.90
4564;DHT22;2294;51.818;8.484;2023-05-07T14:27:35;26.60;1.00
4564;DHT22;2294;51.818;8.484;2023-05-07T14:30:01;27.60;1.00
4564;DHT22;2294;51.818;8.484;2023-05-07T14:32:28;28.20;1.00
4564;DHT22;2294;51.818;8.484;2023-05-07T14:34:55;27.00;99.90
4564;DHT22;2294;51.818;8.484;2023-05-07T14:37:24;26.90;99.90
4564;DHT22;2294;51.818;8.484;2023-05-07T14:39:51;27.10;1.00
4564;DHT22;2294;51.818;8.484;2023-05-07T14:42:17;25.70;99.90
4564;DHT22;2294;51.818;8.484;2023-05-07T14:44:45;26.40;1.00
4564;DHT22;2294;51.818;8.484;2023-05-07T14:47:13;26.40;1.00
4564;DHT22;2294;51.818;8.484;2023-05-07T14:49:41;25.70;1.00
4564;DHT22;2294;51.818;8.484;2023-05-07T14:52:08;24.80;1.00
4564;DHT22;2294;51.818;8.484;2023-05-07T14:54:37;24.80;99.90
4564;DHT22;2294;51.818;8.484;2023-05-07T14:57:06;24.80;99.90
4564;DHT22;2294;51.818;8.484;2023-05-07T14:59:33;23.90;99.90
4564;DHT22;2294;51.818;8.484;2023-05-07T15:02:00;23.40;1.00
4564;DHT22;2294;51.818;8.484;2023-05-07T15:04:27;24.00;99.90
4564;DHT22;2294;51.818;8.484;2023-05-07T15:06:54;23.90;82.30
4564;DHT22;2294;51.818;8.484;2023-05-07T15:09:21;23.30;43.40
4564;DHT22;2294;51.818;8.484;2023-05-07T15:11:50;22.90;99.90
4564;DHT22;2294;51.818;8.484;2023-05-07T15:14:16;22.60;99.90
4564;DHT22;2294;51.818;8.484;2023-05-07T15:16:43;22.50;99.90
4564;DHT22;2294;51.818;8.484;2023-05-07T15:19:11;22.60;99.90
4564;DHT22;2294;51.818;8.484;2023-05-07T15:21:37;22.60;99.90
4564;DHT22;2294;51.818;8.484;2023-05-07T15:24:05;22.60;99.90
4564;DHT22;2294;51.818;8.484;2023-05-07T15:26:32;22.20;99.90
4564;DHT22;2294;51.818;8.484;2023-05-07T15:29:00;21.90;99.90
4564;DHT22;2294;51.818;8.484;2023-05-07T15:31:28;22.00;99.90
4564;DHT22;2294;51.818;8.484;2023-05-07T15:33:55;21.80;99.90
4564;DHT22;2294;51.818;8.484;2023-05-07T15:36:22;21.70;99.90
4564;DHT22;2294;51.818;8.484;2023-05-07T15:38:49;21.80;99.90
4564;DHT22;2294;51.818;8.484;2023-05-07T15:41:16;21.40;99.90
4564;DHT22;2294;51.818;8.484;2023-05-07T15:43:45;21.60;99.90
4564;DHT22;2294;51.818;8.484;2023-05-07T15:46:17;20.90;99.90
4564;DHT22;2294;51.818;8.484;2023-05-07T15:48:44;21.20;99.90
4564;DHT22;2294;51.818;8.484;2023-05-07T15:51:11;21.30;99.90
4564;DHT22;2294;51.818;8.484;2023-05-07T15:53:38;21.30;99.90
4564;DHT22;2294;51.818;8.484;2023-05-07T15:56:06;21.20;99.90
4564;DHT22;2294;51.818;8.484;2023-05-07T15:58:33;21.20;99.90
4564;DHT22;2294;51.818;8.484;2023-05-07T16:01:00;21.50;99.90
4564;DHT22;2294;51.818;8.484;2023-05-07T16:03:29;21.00;99.90
4564;DHT22;2294;51.818;8.484;2023-05-07T16:05:56;21.10;99.90
4564;DHT22;2294;51.818;8.484;2023-05-07T16:08:25;20.80;99.90
4564;DHT22;2294;51.818;8.484;2023-05-07T16:10:52;20.60;99.90
4564;DHT22;2294;51.818;8.484;2023-05-07T16:13:19;20.90;99.90